TimeMST,TemperatureF,Dew PointF,Humidity,Sea Level PressureIn,VisibilityMPH,Wind Direction,Wind SpeedMPH,Gust SpeedMPH,PrecipitationIn,Events,Conditions,WindDirDegrees,DateUTC
12:55 AM,37.4,32.0,81,30.11,10.0,South,9.2,-,N/A,,Partly Cloudy,180,2012-11-04 06:55:00
1:55 AM,37.4,28.4,70,30.08,10.0,South,8.1,-,N/A,,Partly Cloudy,190,2012-11-04 07:55:00
1:55 AM,37.4,28.4,70,30.09,10.0,South,9.2,-,N/A,,Partly Cloudy,190,2012-11-04 08:55:00
2:55 AM,39.2,24.8,56,30.09,10.0,South,9.2,-,N/A,,Partly Cloudy,190,2012-11-04 09:55:00
3:55 AM,39.2,23.0,52,30.09,10.0,South,9.2,-,N/A,,Partly Cloudy,190,2012-11-04 10:55:00
4:55 AM,39.2,23.0,52,30.13,10.0,South,6.9,-,N/A,,Partly Cloudy,190,2012-11-04 11:55:00
5:55 AM,39.2,21.2,49,30.14,10.0,South,9.2,-,N/A,,Mostly Cloudy,190,2012-11-04 12:55:00
6:55 AM,42.8,21.2,42,30.14,70.0,South,8.1,-,N/A,,Mostly Cloudy,180,2012-11-04 13:55:00
7:55 AM,44.6,23.0,43,30.15,70.0,South,9.2,-,N/A,,Mostly Cloudy,190,2012-11-04 14:55:00
8:55 AM,48.2,23.0,37,30.14,70.0,SSW,10.4,-,N/A,,Mostly Cloudy,210,2012-11-04 15:55:00
9:55 AM,57.2,21.2,25,30.12,70.0,West,8.1,-,N/A,,Mostly Cloudy,260,2012-11-04 16:55:00
10:55 AM,59.0,21.2,23,30.12,70.0,West,6.9,-,N/A,,Mostly Cloudy,280,2012-11-04 17:55:00
11:55 AM,60.8,23.0,23,30.10,70.0,North,8.1,-,N/A,,Mostly Cloudy,350,2012-11-04 18:55:00
12:55 PM,62.6,24.8,24,30.09,70.0,North,11.5,-,N/A,,Mostly Cloudy,360,2012-11-04 19:55:00
1:55 PM,60.8,23.0,23,30.09,70.0,North,10.4,-,N/A,,Mostly Cloudy,10,2012-11-04 20:55:00
2:55 PM,59.0,24.8,27,30.12,70.0,NE,10.4,-,N/A,,Mostly Cloudy,40,2012-11-04 21:55:00
3:55 PM,59.0,26.6,29,30.12,70.0,NE,9.2,-,N/A,,Mostly Cloudy,50,2012-11-04 22:55:00
4:55 PM,51.8,24.8,35,30.17,70.0,NE,6.9,-,N/A,,Scattered Clouds,40,2012-11-04 23:55:00
5:55 PM,46.4,28.4,50,30.21,25.0,ESE,6.9,-,N/A,,Mostly Cloudy,110,2012-11-05 00:55:00
6:55 PM,46.4,26.6,46,30.23,25.0,East,6.9,-,N/A,,Scattered Clouds,80,2012-11-05 01:55:00
7:55 PM,42.8,26.6,53,30.33,25.0,East,6.9,-,N/A,,Scattered Clouds,80,2012-11-05 02:55:00
8:55 PM,41.0,26.6,57,30.29,25.0,NE,5.8,-,N/A,,Scattered Clouds,40,2012-11-05 03:55:00
9:55 PM,39.2,28.4,65,30.29,25.0,SW,5.8,-,N/A,,Scattered Clouds,220,2012-11-05 04:55:00
10:55 PM,37.4,28.4,70,30.28,25.0,SSW,5.8,-,N/A,,Scattered Clouds,200,2012-11-05 05:55:00